Time,TemperatureF,DewpointF,PressureIn,WindDirection,WindDirectionDegrees,WindSpeedMPH,WindSpeedGustMPH,Humidity,HourlyPrecipIn,Conditions,Clouds,dailyrainin,SoftwareType,DateUTC
2013-01-19 00:01:00,36.1,23.9,30.38,SW,228,8.1,8.1,61,0.00,CLR,,0.00,WeatherDisplay:10.37,2013-01-19 05:01:00,
2013-01-19 00:03:00,36.1,23.9,30.38,SSW,193,8.1,8.1,61,0.00,CLR,,0.00,WeatherDisplay:10.37,2013-01-19 05:03:00,
2013-01-19 00:08:00,36.0,23.8,30.37,SW,224,8.1,8.1,61,0.00,CLR,,0.00,WeatherDisplay:10.37,2013-01-19 05:08:00,
2013-01-19 00:09:00,36.0,23.8,30.37,SSW,210,6.9,6.9,61,0.00,CLR,,0.00,WeatherDisplay:10.37,2013-01-19 05:09:00,
2013-01-19 00:14:00,35.9,23.7,30.37,SW,229,7.0,7.0,61,0.00,CLR,,0.00,WeatherDisplay:10.37,2013-01-19 05:14:00,
2013-01-19 00:19:00,35.8,23.7,30.37,SW,230,8.1,8.1,61,0.00,CLR,,0.00,WeatherDisplay:10.37,2013-01-19 05:19:00,
2013-01-19 00:24:00,35.7,23.6,30.37,SSW,206,6.0,6.0,61,0.00,CLR,,0.00,WeatherDisplay:10.37,2013-01-19 05:24:00,
2013-01-19 00:29:00,35.5,23.4,30.37,SW,226,5.8,5.8,61,0.00,CLR,,0.00,WeatherDisplay:10.37,2013-01-19 05:29:00,
2013-01-19 00:34:00,35.4,23.3,30.37,SW,226,7.0,7.0,61,0.00,CLR,,0.00,WeatherDisplay:10.37,2013-01-19 05:34:00,
2013-01-19 00:39:00,35.4,23.7,30.37,SW,231,7.0,7.0,62,0.00,CLR,,0.00,WeatherDisplay:10.37,2013-01-19 05:39:00,
2013-01-19 00:44:00,35.2,23.5,30.37,SW,228,7.0,7.0,62,0.00,CLR,,0.00,WeatherDisplay:10.37,2013-01-19 05:44:00,
2013-01-19 00:49:00,35.1,23.4,30.36,SW,218,4.0,4.0,62,0.00,CLR,,0.00,WeatherDisplay:10.37,2013-01-19 05:49:00,
2013-01-19 00:54:00,35.0,23.3,30.37,SW,218,4.6,4.6,62,0.00,CLR,,0.00,WeatherDisplay:10.37,2013-01-19 05:54:00,
2013-01-19 00:59:00,34.8,23.1,30.37,SW,218,4.0,4.0,62,0.00,CLR,,0.00,WeatherDisplay:10.37,2013-01-19 05:59:00,
2013-01-19 01:04:00,34.6,22.9,30.37,SW,220,4.0,4.0,62,0.00,CLR,,0.00,WeatherDisplay:10.37,2013-01-19 06:04:00,
2013-01-19 01:09:00,34.6,22.9,30.36,SSW,194,3.5,3.5,62,0.00,CLR,,0.00,WeatherDisplay:10.37,2013-01-19 06:09:00,
2013-01-19 01:14:00,34.6,22.9,30.36,SSW,200,7.0,7.0,62,0.00,CLR,,0.00,WeatherDisplay:10.37,2013-01-19 06:14:00,
2013-01-19 01:19:00,34.6,22.9,30.36,SW,225,7.0,7.0,62,0.00,CLR,,0.00,WeatherDisplay:10.37,2013-01-19 06:19:00,
2013-01-19 01:24:00,34.6,22.9,30.36,SW,220,4.0,4.0,62,0.00,CLR,,0.00,WeatherDisplay:10.37,2013-01-19 06:24:00,
2013-01-19 01:29:00,34.7,23.0,30.36,SW,221,5.0,5.0,62,0.00,CLR,,0.00,WeatherDisplay:10.37,2013-01-19 06:29:00,
2013-01-19 01:34:00,34.7,23.0,30.36,SW,216,4.0,4.0,62,0.00,CLR,,0.00,WeatherDisplay:10.37,2013-01-19 06:34:00,
2013-01-19 01:39:00,34.7,23.0,30.36,SW,230,6.0,6.0,62,0.00,CLR,,0.00,WeatherDisplay:10.37,2013-01-19 06:39:00,
2013-01-19 01:44:00,34.6,22.9,30.36,SW,230,5.0,5.0,62,0.00,CLR,,0.00,WeatherDisplay:10.37,2013-01-19 06:44:00,
2013-01-19 01:49:00,34.6,22.9,30.36,SW,223,7.0,7.0,62,0.00,CLR,,0.00,WeatherDisplay:10.37,2013-01-19 06:49:00,
2013-01-19 01:54:00,34.6,22.9,30.36,SW,220,6.0,6.0,62,0.00,CLR,,0.00,WeatherDisplay:10.37,2013-01-19 06:54:00,
2013-01-19 01:59:00,34.6,22.9,30.36,SW,221,6.0,6.0,62,0.00,CLR,,0.00,WeatherDisplay:10.37,2013-01-19 06:59:00,
2013-01-19 02:04:00,34.9,23.2,30.37,SSW,212,8.0,8.0,62,0.00,CLR,,0.00,WeatherDisplay:10.37,2013-01-19 07:04:00,
2013-01-19 02:09:00,34.9,23.2,30.36,SW,222,7.0,7.0,62,0.00,CLR,,0.00,WeatherDisplay:10.37,2013-01-19 07:09:00,
2013-01-19 02:14:00,34.9,23.2,30.36,SSW,213,7.0,7.0,62,0.00,CLR,,0.00,WeatherDisplay:10.37,2013-01-19 07:14:00,
2013-01-19 02:19:00,34.8,23.1,30.37,SW,232,4.0,4.0,62,0.00,CLR,,0.00,WeatherDisplay:10.37,2013-01-19 07:19:00,
2013-01-19 02:24:00,34.8,23.1,30.37,SSW,195,9.2,9.2,62,0.00,CLR,,0.00,WeatherDisplay:10.37,2013-01-19 07:24:00,
2013-01-19 02:29:00,34.7,23.4,30.37,SW,234,10.0,10.0,63,0.00,CLR,,0.00,WeatherDisplay:10.37,2013-01-19 07:29:00,
2013-01-19 02:34:00,34.7,23.4,30.37,SSW,205,6.0,6.0,63,0.00,CLR,,0.00,WeatherDisplay:10.37,2013-01-19 07:34:00,
2013-01-19 02:39:00,34.6,23.3,30.37,SW,216,6.0,6.0,63,0.00,CLR,,0.00,WeatherDisplay:10.37,2013-01-19 07:39:00,
2013-01-19 02:44:00,34.4,23.1,30.37,SW,229,11.5,11.5,63,0.00,CLR,,0.00,WeatherDisplay:10.37,2013-01-19 07:44:00,
2013-01-19 02:49:00,34.4,23.1,30.37,SW,226,8.1,8.1,63,0.00,CLR,,0.00,WeatherDisplay:10.37,2013-01-19 07:49:00,
2013-01-19 02:54:00,34.4,23.1,30.36,SW,230,8.1,8.1,63,0.00,CLR,,0.00,WeatherDisplay:10.37,2013-01-19 07:54:00,
2013-01-19 02:59:00,34.4,23.1,30.36,SW,232,8.0,8.0,63,0.00,CLR,,0.00,WeatherDisplay:10.37,2013-01-19 07:59:00,
2013-01-19 03:04:00,34.4,23.1,30.36,SW,218,10.4,10.4,63,0.00,CLR,,0.00,WeatherDisplay:10.37,2013-01-19 08:04:00,
2013-01-19 03:09:00,34.4,23.1,30.36,WSW,239,9.0,9.0,63,0.00,CLR,,0.00,WeatherDisplay:10.37,2013-01-19 08:09:00,
2013-01-19 03:14:00,34.4,23.1,30.36,SW,221,5.0,5.0,63,0.00,CLR,,0.00,WeatherDisplay:10.37,2013-01-19 08:14:00,
2013-01-19 03:19:00,34.4,23.1,30.36,SW,232,6.0,6.0,63,0.00,CLR,,0.00,WeatherDisplay:10.37,2013-01-19 08:19:00,
2013-01-19 03:24:00,34.4,23.1,30.35,SW,227,6.0,6.0,63,0.00,CLR,,0.00,WeatherDisplay:10.37,2013-01-19 08:24:00,
2013-01-19 03:29:00,34.4,23.1,30.35,SSW,211,5.0,5.0,63,0.00,CLR,,0.00,WeatherDisplay:10.37,2013-01-19 08:29:00,
2013-01-19 03:34:00,34.4,23.1,30.35,SSW,197,10.0,10.0,63,0.00,CLR,,0.00,WeatherDisplay:10.37,2013-01-19 08:34:00,
2013-01-19 03:39:00,34.4,23.1,30.35,SW,229,8.1,8.1,63,0.00,CLR,,0.00,WeatherDisplay:10.37,2013-01-19 08:39:00,
2013-01-19 03:44:00,34.4,23.1,30.35,WSW,243,11.5,11.5,63,0.00,CLR,,0.00,WeatherDisplay:10.37,2013-01-19 08:44:00,
2013-01-19 03:49:00,34.5,23.2,30.35,SW,232,8.1,8.1,63,0.00,CLR,,0.00,WeatherDisplay:10.37,2013-01-19 08:49:00,
2013-01-19 03:54:00,34.4,23.1,30.35,SSW,206,7.0,7.0,63,0.00,CLR,,0.00,WeatherDisplay:10.37,2013-01-19 08:54:00,
2013-01-19 03:59:00,34.4,23.5,30.35,SSW,207,10.4,10.4,64,0.00,CLR,,0.00,WeatherDisplay:10.37,2013-01-19 08:59:00,
2013-01-19 04:04:00,34.4,23.5,30.35,SW,223,7.0,7.0,64,0.00,CLR,,0.00,WeatherDisplay:10.37,2013-01-19 09:04:00,
2013-01-19 04:09:00,34.3,23.4,30.35,SW,220,8.1,8.1,64,0.00,CLR,,0.00,WeatherDisplay:10.37,2013-01-19 09:09:00,
2013-01-19 04:14:00,34.2,23.7,30.36,SSW,212,4.6,4.6,65,0.00,CLR,,0.00,WeatherDisplay:10.37,2013-01-19 09:14:00,
2013-01-19 04:19:00,33.9,23.4,30.36,SW,218,7.0,7.0,65,0.00,CLR,,0.00,WeatherDisplay:10.37,2013-01-19 09:19:00,
2013-01-19 04:24:00,33.8,23.3,30.35,SW,226,3.5,3.5,65,0.00,CLR,,0.00,WeatherDisplay:10.37,2013-01-19 09:24:00,
2013-01-19 04:29:00,33.6,23.4,30.35,SW,220,5.0,5.0,66,0.00,CLR,,0.00,WeatherDisplay:10.37,2013-01-19 09:29:00,
2013-01-19 04:34:00,33.5,23.4,30.35,SW,220,6.9,6.9,66,0.00,CLR,,0.00,WeatherDisplay:10.37,2013-01-19 09:34:00,
2013-01-19 04:39:00,33.4,23.6,30.35,SW,225,8.1,8.1,67,0.00,CLR,,0.00,WeatherDisplay:10.37,2013-01-19 09:39:00,
2013-01-19 04:44:00,33.4,23.6,30.34,SW,225,5.0,5.0,67,0.00,CLR,,0.00,WeatherDisplay:10.37,2013-01-19 09:44:00,
2013-01-19 04:49:00,33.4,23.6,30.34,SW,224,3.0,3.0,67,0.00,CLR,,0.00,WeatherDisplay:10.37,2013-01-19 09:49:00,
2013-01-19 04:54:00,33.4,23.6,30.34,SW,226,4.0,4.0,67,0.00,CLR,,0.00,WeatherDisplay:10.37,2013-01-19 09:54:00,
2013-01-19 04:59:00,33.4,23.6,30.34,SW,226,4.6,4.6,67,0.00,CLR,,0.00,WeatherDisplay:10.37,2013-01-19 09:59:00,
2013-01-19 05:04:00,33.4,23.6,30.34,SW,224,7.0,7.0,67,0.00,CLR,,0.00,WeatherDisplay:10.37,2013-01-19 10:04:00,
2013-01-19 05:09:00,33.7,23.5,30.34,SW,228,7.0,7.0,66,0.00,CLR,,0.00,WeatherDisplay:10.37,2013-01-19 10:09:00,
2013-01-19 05:14:00,33.8,23.6,30.34,SW,224,9.2,9.2,66,0.00,CLR,,0.00,WeatherDisplay:10.37,2013-01-19 10:14:00,
2013-01-19 05:19:00,33.8,23.6,30.34,SW,214,4.6,4.6,66,0.00,CLR,,0.00,WeatherDisplay:10.37,2013-01-19 10:19:00,
2013-01-19 05:24:00,33.9,23.7,30.33,SW,224,7.0,7.0,66,0.00,CLR,,0.00,WeatherDisplay:10.37,2013-01-19 10:24:00,
2013-01-19 05:29:00,33.9,23.7,30.33,SW,221,8.0,8.0,66,0.00,CLR,,0.00,WeatherDisplay:10.37,2013-01-19 10:29:00,
2013-01-19 05:34:00,33.9,23.7,30.33,SW,228,9.2,9.2,66,0.00,CLR,,0.00,WeatherDisplay:10.37,2013-01-19 10:34:00,
2013-01-19 05:39:00,33.9,23.7,30.33,SW,226,9.0,9.0,66,0.00,CLR,,0.00,WeatherDisplay:10.37,2013-01-19 10:39:00,
2013-01-19 05:44:00,33.8,23.6,30.33,SW,226,7.0,7.0,66,0.00,CLR,,0.00,WeatherDisplay:10.37,2013-01-19 10:44:00,
2013-01-19 05:49:00,33.8,23.6,30.33,SW,235,6.9,6.9,66,0.00,CLR,,0.00,WeatherDisplay:10.37,2013-01-19 10:49:00,
2013-01-19 05:54:00,33.8,23.6,30.33,SSW,205,4.6,4.6,66,0.00,CLR,,0.00,WeatherDisplay:10.37,2013-01-19 10:54:00,
2013-01-19 05:59:00,33.8,23.3,30.33,SW,231,7.0,7.0,65,0.00,CLR,,0.00,WeatherDisplay:10.37,2013-01-19 10:59:00,
2013-01-19 06:04:00,33.8,23.3,30.33,SW,230,4.6,4.6,65,0.00,CLR,,0.00,WeatherDisplay:10.37,2013-01-19 11:04:00,
2013-01-19 06:09:00,33.7,23.2,30.33,SW,224,8.1,8.1,65,0.00,CLR,,0.00,WeatherDisplay:10.37,2013-01-19 11:09:00,
2013-01-19 07:47:00,33.7,23.5,30.33,SW,228,11.5,11.5,66,0.00,CLR,,0.00,WeatherDisplay:10.37,2013-01-19 12:47:00,
2013-01-19 07:48:00,33.7,23.5,30.33,SW,228,11.5,11.5,66,0.00,CLR,,0.00,WeatherDisplay:10.37,2013-01-19 12:48:00,
2013-01-19 07:49:00,33.7,23.5,30.33,SW,226,4.0,4.0,66,0.00,CLR,,0.00,WeatherDisplay:10.37,2013-01-19 12:49:00,
2013-01-19 07:51:00,33.7,23.5,30.33,SW,226,6.0,6.0,66,0.00,CLR,,0.00,WeatherDisplay:10.37,2013-01-19 12:51:00,
2013-01-19 07:56:00,33.8,23.6,30.33,WSW,243,8.1,8.1,66,0.00,CLR,,0.00,WeatherDisplay:10.37,2013-01-19 12:56:00,
2013-01-19 08:02:00,33.9,23.7,30.33,SW,226,4.0,4.0,66,0.00,CLR,,0.00,WeatherDisplay:10.37,2013-01-19 13:02:00,
2013-01-19 08:07:00,34.1,23.9,30.33,SW,228,8.1,8.1,66,0.00,CLR,,0.00,WeatherDisplay:10.37,2013-01-19 13:07:00,
2013-01-19 08:12:00,34.3,24.1,30.33,SW,231,5.8,5.8,66,0.00,CLR,,0.00,WeatherDisplay:10.37,2013-01-19 13:12:00,
2013-01-19 08:17:00,34.3,24.1,30.33,SW,233,8.0,8.0,66,0.00,CLR,,0.00,WeatherDisplay:10.37,2013-01-19 13:17:00,
2013-01-19 08:22:00,34.4,24.2,30.33,SW,229,10.4,10.4,66,0.00,CLR,,0.00,WeatherDisplay:10.37,2013-01-19 13:22:00,
2013-01-19 08:27:00,34.6,24.4,30.33,SW,226,5.0,5.0,66,0.00,CLR,,0.00,WeatherDisplay:10.37,2013-01-19 13:27:00,
2013-01-19 08:32:00,35.0,24.8,30.33,SW,227,7.0,7.0,66,0.00,CLR,,0.00,WeatherDisplay:10.37,2013-01-19 13:32:00,
2013-01-19 08:37:00,35.3,24.7,30.33,SW,225,6.0,6.0,65,0.00,CLR,,0.00,WeatherDisplay:10.37,2013-01-19 13:37:00,
2013-01-19 08:42:00,35.5,24.9,30.33,SW,228,9.2,9.2,65,0.00,CLR,,0.00,WeatherDisplay:10.37,2013-01-19 13:42:00,
2013-01-19 08:47:00,35.8,25.2,30.33,SW,228,7.0,7.0,65,0.00,CLR,,0.00,WeatherDisplay:10.37,2013-01-19 13:47:00,
2013-01-19 08:52:00,36.3,25.3,30.33,SW,227,9.0,9.0,64,0.00,CLR,,0.00,WeatherDisplay:10.37,2013-01-19 13:52:00,
2013-01-19 08:57:00,36.7,25.7,30.33,SW,230,6.9,6.9,64,0.00,CLR,,0.00,WeatherDisplay:10.37,2013-01-19 13:57:00,
2013-01-19 09:02:00,37.1,26.0,30.33,WSW,248,5.0,5.0,64,0.00,CLR,,0.00,WeatherDisplay:10.37,2013-01-19 14:02:00,
2013-01-19 09:07:00,37.5,26.0,30.33,SW,236,9.2,9.2,63,0.00,CLR,,0.00,WeatherDisplay:10.37,2013-01-19 14:07:00,
2013-01-19 09:12:00,37.9,26.4,30.33,SW,227,8.1,8.1,63,0.00,CLR,,0.00,WeatherDisplay:10.37,2013-01-19 14:12:00,
2013-01-19 09:17:00,38.2,26.7,30.33,SW,229,8.0,8.0,63,0.00,CLR,,0.00,WeatherDisplay:10.37,2013-01-19 14:17:00,
2013-01-19 09:22:00,38.5,26.6,30.33,SW,222,6.9,6.9,62,0.00,CLR,,0.00,WeatherDisplay:10.37,2013-01-19 14:22:00,
2013-01-19 09:27:00,38.8,26.9,30.33,WSW,240,8.1,8.1,62,0.00,CLR,,0.00,WeatherDisplay:10.37,2013-01-19 14:27:00,
2013-01-19 09:32:00,39.2,27.3,30.33,SW,227,7.0,7.0,62,0.00,CLR,,0.00,WeatherDisplay:10.37,2013-01-19 14:32:00,
2013-01-19 09:37:00,39.6,27.6,30.33,SW,222,7.0,7.0,62,0.00,CLR,,0.00,WeatherDisplay:10.37,2013-01-19 14:37:00,
2013-01-19 09:42:00,40.3,27.9,30.33,SW,233,7.0,7.0,61,0.00,CLR,,0.00,WeatherDisplay:10.37,2013-01-19 14:42:00,
2013-01-19 09:47:00,40.9,28.1,30.33,SW,232,9.2,9.2,60,0.00,CLR,,0.00,WeatherDisplay:10.37,2013-01-19 14:47:00,
2013-01-19 09:52:00,41.7,28.0,30.33,SW,216,8.1,8.1,58,0.00,CLR,,0.00,WeatherDisplay:10.37,2013-01-19 14:52:00,
2013-01-19 09:57:00,42.2,28.5,30.33,WSW,237,10.4,10.4,58,0.00,CLR,,0.00,WeatherDisplay:10.37,2013-01-19 14:57:00,
2013-01-19 10:02:00,42.8,28.6,30.33,SW,214,6.9,6.9,57,0.00,CLR,,0.00,WeatherDisplay:10.37,2013-01-19 15:02:00,
2013-01-19 10:07:00,43.2,28.5,30.33,WSW,239,12.0,12.0,56,0.00,CLR,,0.00,WeatherDisplay:10.37,2013-01-19 15:07:00,
2013-01-19 10:12:00,43.7,28.6,30.32,SW,232,8.1,8.1,55,0.00,CLR,,0.00,WeatherDisplay:10.37,2013-01-19 15:12:00,
2013-01-19 10:17:00,44.1,28.5,30.33,WSW,243,17.3,17.3,54,0.00,CLR,,0.00,WeatherDisplay:10.37,2013-01-19 15:17:00,
2013-01-19 10:22:00,44.6,28.5,30.32,West,271,16.1,16.1,53,0.00,CLR,,0.00,WeatherDisplay:10.37,2013-01-19 15:22:00,
2013-01-19 10:27:00,45.0,28.4,30.32,SW,225,18.4,18.4,52,0.00,CLR,,0.00,WeatherDisplay:10.37,2013-01-19 15:27:00,
2013-01-19 10:33:00,45.2,28.6,30.32,SW,223,15.0,15.0,52,0.00,CLR,,0.00,WeatherDisplay:10.37,2013-01-19 15:33:00,
2013-01-19 10:38:00,45.8,28.2,30.33,SW,236,19.0,19.0,50,0.00,CLR,,0.00,WeatherDisplay:10.37,2013-01-19 15:38:00,
2013-01-19 10:43:00,45.8,28.2,30.32,SW,233,15.0,15.0,50,0.00,CLR,,0.00,WeatherDisplay:10.37,2013-01-19 15:43:00,
2013-01-19 10:48:00,46.0,28.4,30.32,SW,229,16.0,16.0,50,0.00,CLR,,0.00,WeatherDisplay:10.37,2013-01-19 15:48:00,
2013-01-19 10:53:00,46.2,28.6,30.32,SW,234,13.8,13.8,50,0.00,CLR,,0.00,WeatherDisplay:10.37,2013-01-19 15:53:00,
2013-01-19 10:58:00,46.5,28.8,30.32,SSW,212,15.0,15.0,50,0.00,CLR,,0.00,WeatherDisplay:10.37,2013-01-19 15:58:00,
2013-01-19 11:03:00,46.5,28.3,30.32,SW,229,19.6,19.6,49,0.00,CLR,,0.00,WeatherDisplay:10.37,2013-01-19 16:03:00,
2013-01-19 11:08:00,46.7,29.0,30.32,West,280,10.4,10.4,50,0.00,CLR,,0.00,WeatherDisplay:10.37,2013-01-19 16:08:00,
2013-01-19 11:13:00,46.9,28.7,30.31,WSW,247,7.0,7.0,49,0.00,CLR,,0.00,WeatherDisplay:10.37,2013-01-19 16:13:00,
2013-01-19 11:18:00,47.0,28.3,30.31,SW,226,16.0,16.0,48,0.00,CLR,,0.00,WeatherDisplay:10.37,2013-01-19 16:18:00,
2013-01-19 11:23:00,47.0,27.8,30.30,WNW,290,23.0,23.0,47,0.00,CLR,,0.00,WeatherDisplay:10.37,2013-01-19 16:23:00,
2013-01-19 11:28:00,46.8,28.1,30.30,WSW,255,16.1,16.1,48,0.00,CLR,,0.00,WeatherDisplay:10.37,2013-01-19 16:28:00,
2013-01-19 11:33:00,46.9,28.2,30.29,WSW,253,14.0,14.0,48,0.00,CLR,,0.00,WeatherDisplay:10.37,2013-01-19 16:33:00,
2013-01-19 11:38:00,47.3,28.6,30.29,WSW,250,15.0,15.0,48,0.00,CLR,,0.00,WeatherDisplay:10.37,2013-01-19 16:38:00,
2013-01-19 11:43:00,47.4,28.7,30.29,WSW,255,20.0,20.0,48,0.00,CLR,,0.00,WeatherDisplay:10.37,2013-01-19 16:43:00,
2013-01-19 11:48:00,47.7,28.4,30.28,WSW,247,13.0,13.0,47,0.00,CLR,,0.00,WeatherDisplay:10.37,2013-01-19 16:48:00,
2013-01-19 11:53:00,47.9,28.6,30.28,SW,225,16.1,16.1,47,0.00,CLR,,0.00,WeatherDisplay:10.37,2013-01-19 16:53:00,
2013-01-19 11:58:00,48.3,29.0,30.28,WSW,240,15.0,15.0,47,0.00,CLR,,0.00,WeatherDisplay:10.37,2013-01-19 16:58:00,
2013-01-19 12:03:00,48.4,28.5,30.27,SW,222,12.0,12.0,46,0.00,CLR,,0.00,WeatherDisplay:10.37,2013-01-19 17:03:00,
2013-01-19 12:08:00,48.4,28.5,30.26,WSW,257,18.4,18.4,46,0.00,CLR,,0.00,WeatherDisplay:10.37,2013-01-19 17:08:00,
2013-01-19 12:14:00,48.8,29.4,30.26,WSW,253,15.0,15.0,47,0.00,CLR,,0.00,WeatherDisplay:10.37,2013-01-19 17:14:00,
2013-01-19 12:19:00,48.7,28.8,30.25,WSW,241,14.0,14.0,46,0.00,CLR,,0.00,WeatherDisplay:10.37,2013-01-19 17:19:00,
2013-01-19 12:25:00,48.7,28.3,30.25,SW,230,20.0,20.0,45,0.00,CLR,,0.00,WeatherDisplay:10.37,2013-01-19 17:25:00,
2013-01-19 12:30:00,49.0,29.1,30.25,WSW,243,18.0,18.0,46,0.00,CLR,,0.00,WeatherDisplay:10.37,2013-01-19 17:30:00,
2013-01-19 12:35:00,49.1,28.1,30.24,WSW,244,18.0,18.0,44,0.00,CLR,,0.00,WeatherDisplay:10.37,2013-01-19 17:35:00,
2013-01-19 12:40:00,49.2,28.2,30.24,WSW,252,15.0,15.0,44,0.00,CLR,,0.00,WeatherDisplay:10.37,2013-01-19 17:40:00,
2013-01-19 12:45:00,49.2,27.6,30.24,SW,232,23.0,23.0,43,0.00,CLR,,0.00,WeatherDisplay:10.37,2013-01-19 17:45:00,
2013-01-19 12:51:00,49.5,28.5,30.23,West,274,20.7,20.7,44,0.00,CLR,,0.00,WeatherDisplay:10.37,2013-01-19 17:51:00,
2013-01-19 12:56:00,49.7,28.1,30.23,SSW,213,14.0,14.0,43,0.00,CLR,,0.00,WeatherDisplay:10.37,2013-01-19 17:56:00,
2013-01-19 13:01:00,49.8,28.7,30.22,WSW,248,15.0,15.0,44,0.00,CLR,,0.00,WeatherDisplay:10.37,2013-01-19 18:01:00,
2013-01-19 13:07:00,50.3,28.6,30.22,WSW,251,22.0,22.0,43,0.00,CLR,,0.00,WeatherDisplay:10.37,2013-01-19 18:07:00,
2013-01-19 13:12:00,50.1,27.9,30.21,WSW,250,23.0,23.0,42,0.00,CLR,,0.00,WeatherDisplay:10.37,2013-01-19 18:12:00,
2013-01-19 13:17:00,50.3,28.1,30.21,West,275,19.6,19.6,42,0.00,CLR,,0.00,WeatherDisplay:10.37,2013-01-19 18:17:00,
2013-01-19 13:23:00,50.5,28.8,30.20,WSW,237,9.0,9.0,43,0.00,CLR,,0.00,WeatherDisplay:10.37,2013-01-19 18:23:00,
2013-01-19 13:28:00,51.1,28.8,30.20,WSW,245,11.0,11.0,42,0.00,CLR,,0.00,WeatherDisplay:10.37,2013-01-19 18:28:00,
2013-01-19 13:33:00,51.3,28.4,30.20,WSW,238,18.0,18.0,41,0.00,CLR,,0.00,WeatherDisplay:10.37,2013-01-19 18:33:00,
2013-01-19 13:38:00,51.3,28.4,30.19,WSW,247,13.0,13.0,41,0.00,CLR,,0.00,WeatherDisplay:10.37,2013-01-19 18:38:00,
2013-01-19 13:44:00,51.8,28.2,30.19,SSW,197,18.4,18.4,40,0.00,CLR,,0.00,WeatherDisplay:10.37,2013-01-19 18:44:00,
2013-01-19 13:49:00,51.9,27.7,30.18,SW,234,15.0,15.0,39,0.00,CLR,,0.00,WeatherDisplay:10.37,2013-01-19 18:49:00,
2013-01-19 13:54:00,52.1,28.5,30.18,WSW,242,15.0,15.0,40,0.00,CLR,,0.00,WeatherDisplay:10.37,2013-01-19 18:54:00,
2013-01-19 14:00:00,52.4,28.8,30.18,WSW,239,16.1,16.1,40,0.00,CLR,,0.00,WeatherDisplay:10.37,2013-01-19 19:00:00,
2013-01-19 14:05:00,52.7,29.0,30.17,SW,218,11.5,11.5,40,0.00,CLR,,0.00,WeatherDisplay:10.37,2013-01-19 19:05:00,
2013-01-19 14:11:00,52.7,29.0,30.17,WSW,242,17.3,17.3,40,0.00,CLR,,0.00,WeatherDisplay:10.37,2013-01-19 19:11:00,
2013-01-19 14:17:00,52.6,28.9,30.17,SW,229,12.7,12.7,40,0.00,CLR,,0.00,WeatherDisplay:10.37,2013-01-19 19:17:00,
2013-01-19 14:22:00,53.0,29.3,30.16,West,259,14.0,14.0,40,0.00,CLR,,0.00,WeatherDisplay:10.37,2013-01-19 19:22:00,
2013-01-19 14:28:00,53.2,29.5,30.16,WSW,248,12.0,12.0,40,0.00,CLR,,0.00,WeatherDisplay:10.37,2013-01-19 19:28:00,
2013-01-19 14:33:00,53.5,29.1,30.16,WSW,237,14.0,14.0,39,0.00,CLR,,0.00,WeatherDisplay:10.37,2013-01-19 19:33:00,
2013-01-19 14:38:00,53.3,28.3,30.16,WSW,253,16.1,16.1,38,0.00,CLR,,0.00,WeatherDisplay:10.37,2013-01-19 19:38:00,
2013-01-19 14:43:00,53.7,27.4,30.16,SW,214,16.1,16.1,36,0.00,CLR,,0.00,WeatherDisplay:10.37,2013-01-19 19:43:00,
2013-01-19 14:49:00,53.8,27.4,30.15,WSW,249,10.4,10.4,36,0.00,CLR,,0.00,WeatherDisplay:10.37,2013-01-19 19:49:00,
2013-01-19 14:54:00,54.2,27.1,30.15,WSW,253,15.0,15.0,35,0.00,CLR,,0.00,WeatherDisplay:10.37,2013-01-19 19:54:00,
2013-01-19 14:59:00,54.1,27.0,30.14,SW,225,11.5,11.5,35,0.00,CLR,,0.00,WeatherDisplay:10.37,2013-01-19 19:59:00,
2013-01-19 15:04:00,54.2,27.1,30.14,WSW,244,13.0,13.0,35,0.00,CLR,,0.00,WeatherDisplay:10.37,2013-01-19 20:04:00,
2013-01-19 15:10:00,54.2,26.4,30.14,WSW,241,22.0,22.0,34,0.00,CLR,,0.00,WeatherDisplay:10.37,2013-01-19 20:10:00,
2013-01-19 15:15:00,54.1,26.3,30.14,SW,226,17.0,17.0,34,0.00,CLR,,0.00,WeatherDisplay:10.37,2013-01-19 20:15:00,
2013-01-19 15:20:00,54.1,26.3,30.14,WSW,243,19.6,19.6,34,0.00,CLR,,0.00,WeatherDisplay:10.37,2013-01-19 20:20:00,
2013-01-19 15:25:00,53.6,25.9,30.13,SSW,210,14.0,14.0,34,0.00,CLR,,0.00,WeatherDisplay:10.37,2013-01-19 20:25:00,
2013-01-19 15:31:00,54.0,26.9,30.13,West,264,18.4,18.4,35,0.00,CLR,,0.00,WeatherDisplay:10.37,2013-01-19 20:31:00,
2013-01-19 15:37:00,54.4,26.6,30.13,WSW,245,12.0,12.0,34,0.00,CLR,,0.00,WeatherDisplay:10.37,2013-01-19 20:37:00,
2013-01-19 15:42:00,54.2,26.4,30.12,WSW,238,15.0,15.0,34,0.00,CLR,,0.00,WeatherDisplay:10.37,2013-01-19 20:42:00,
2013-01-19 15:47:00,54.1,27.0,30.12,SW,222,13.0,13.0,35,0.00,CLR,,0.00,WeatherDisplay:10.37,2013-01-19 20:47:00,
2013-01-19 15:53:00,54.3,27.2,30.12,WSW,237,13.0,13.0,35,0.00,CLR,,0.00,WeatherDisplay:10.37,2013-01-19 20:53:00,
2013-01-19 15:58:00,54.2,26.4,30.12,SW,234,17.0,17.0,34,0.00,CLR,,0.00,WeatherDisplay:10.37,2013-01-19 20:58:00,
2013-01-19 16:03:00,54.2,26.4,30.12,West,267,12.7,12.7,34,0.00,CLR,,0.00,WeatherDisplay:10.37,2013-01-19 21:03:00,
2013-01-19 16:09:00,53.9,26.1,30.12,SW,222,20.0,20.0,34,0.00,CLR,,0.00,WeatherDisplay:10.37,2013-01-19 21:09:00,
2013-01-19 16:14:00,53.9,26.1,30.11,SW,235,18.4,18.4,34,0.00,CLR,,0.00,WeatherDisplay:10.37,2013-01-19 21:14:00,
2013-01-19 16:19:00,53.8,26.1,30.11,WSW,239,12.0,12.0,34,0.00,CLR,,0.00,WeatherDisplay:10.37,2013-01-19 21:19:00,
2013-01-19 16:24:00,53.7,26.7,30.11,WSW,243,18.4,18.4,35,0.00,CLR,,0.00,WeatherDisplay:10.37,2013-01-19 21:24:00,
2013-01-19 16:29:00,53.7,27.4,30.11,WSW,239,12.7,12.7,36,0.00,CLR,,0.00,WeatherDisplay:10.37,2013-01-19 21:29:00,
2013-01-19 16:34:00,53.9,27.5,30.11,SW,217,9.2,9.2,36,0.00,CLR,,0.00,WeatherDisplay:10.37,2013-01-19 21:34:00,
2013-01-19 16:40:00,53.9,27.5,30.11,WSW,238,5.0,16.0,36,0.00,CLR,,0.00,WeatherDisplay:10.37,2013-01-19 21:40:00,
2013-01-19 16:45:00,53.8,26.8,30.10,WSW,245,15.0,15.0,35,0.00,CLR,,0.00,WeatherDisplay:10.37,2013-01-19 21:45:00,
2013-01-19 16:51:00,53.7,27.4,30.10,West,260,11.5,11.5,36,0.00,CLR,,0.00,WeatherDisplay:10.37,2013-01-19 21:51:00,
2013-01-19 16:56:00,53.4,27.1,30.10,SW,234,17.3,17.3,36,0.00,CLR,,0.00,WeatherDisplay:10.37,2013-01-19 21:56:00,
2013-01-19 17:01:00,53.2,26.9,30.10,SW,229,13.8,13.8,36,0.00,CLR,,0.00,WeatherDisplay:10.37,2013-01-19 22:01:00,
2013-01-19 17:06:00,53.2,26.9,30.10,WSW,238,13.0,13.0,36,0.00,CLR,,0.00,WeatherDisplay:10.37,2013-01-19 22:06:00,
2013-01-19 17:11:00,53.0,26.7,30.11,WSW,251,16.1,16.1,36,0.00,CLR,,0.00,WeatherDisplay:10.37,2013-01-19 22:11:00,
2013-01-19 17:16:00,52.8,27.2,30.10,West,262,9.2,9.2,37,0.00,CLR,,0.00,WeatherDisplay:10.37,2013-01-19 22:16:00,
2013-01-19 17:22:00,52.5,26.9,30.10,WSW,237,8.1,8.1,37,0.00,CLR,,0.00,WeatherDisplay:10.37,2013-01-19 22:22:00,
2013-01-19 17:27:00,52.2,27.3,30.10,SW,226,11.5,11.5,38,0.00,CLR,,0.00,WeatherDisplay:10.37,2013-01-19 22:27:00,
2013-01-19 17:33:00,52.0,27.1,30.10,WSW,237,7.0,7.0,38,0.00,CLR,,0.00,WeatherDisplay:10.37,2013-01-19 22:33:00,
2013-01-19 17:39:00,51.4,27.2,30.09,SW,221,7.0,7.0,39,0.00,CLR,,0.00,WeatherDisplay:10.37,2013-01-19 22:39:00,
2013-01-19 17:45:00,51.0,27.5,30.09,SW,233,8.1,8.1,40,0.00,CLR,,0.00,WeatherDisplay:10.37,2013-01-19 22:45:00,
2013-01-19 17:50:00,50.6,27.1,30.09,SW,236,8.1,8.1,40,0.00,CLR,,0.00,WeatherDisplay:10.37,2013-01-19 22:50:00,
2013-01-19 17:55:00,50.4,27.6,30.09,SW,236,7.0,7.0,41,0.00,CLR,,0.00,WeatherDisplay:10.37,2013-01-19 22:55:00,
2013-01-19 18:00:00,50.1,27.3,30.09,WSW,241,5.0,5.0,41,0.00,CLR,,0.00,WeatherDisplay:10.37,2013-01-19 23:00:00,
2013-01-19 18:05:00,49.9,27.1,30.09,SW,231,8.1,8.1,41,0.00,CLR,,0.00,WeatherDisplay:10.37,2013-01-19 23:05:00,
2013-01-19 18:11:00,49.6,26.8,30.09,SW,232,9.2,9.2,41,0.00,CLR,,0.00,WeatherDisplay:10.37,2013-01-19 23:11:00,
2013-01-19 18:16:00,49.4,27.2,30.09,SW,229,6.9,6.9,42,0.00,CLR,,0.00,WeatherDisplay:10.37,2013-01-19 23:16:00,
2013-01-19 18:22:00,49.0,26.9,30.09,SW,230,8.1,8.1,42,0.00,CLR,,0.00,WeatherDisplay:10.37,2013-01-19 23:22:00,
2013-01-19 18:28:00,48.9,27.4,30.09,SW,230,8.1,8.1,43,0.00,CLR,,0.00,WeatherDisplay:10.37,2013-01-19 23:28:00,
2013-01-19 18:33:00,48.8,26.7,30.09,SW,230,8.1,8.1,42,0.00,CLR,,0.00,WeatherDisplay:10.37,2013-01-19 23:33:00,
2013-01-19 18:38:00,48.6,27.1,30.08,SW,224,8.1,8.1,43,0.00,CLR,,0.00,WeatherDisplay:10.37,2013-01-19 23:38:00,
2013-01-19 18:43:00,48.3,26.8,30.09,WSW,239,11.5,11.5,43,0.00,CLR,,0.00,WeatherDisplay:10.37,2013-01-19 23:43:00,
2013-01-19 18:49:00,48.2,26.7,30.09,SW,221,9.2,9.2,43,0.00,CLR,,0.00,WeatherDisplay:10.37,2013-01-19 23:49:00,
2013-01-19 18:55:00,47.9,26.5,30.08,SW,234,3.5,3.5,43,0.00,CLR,,0.00,WeatherDisplay:10.37,2013-01-19 23:55:00,
2013-01-19 19:00:00,47.5,27.2,30.08,SSW,195,8.1,8.1,45,0.00,CLR,,0.00,WeatherDisplay:10.37,2013-01-20 00:00:00,
2013-01-19 19:05:00,47.2,26.9,30.08,SW,232,6.0,6.0,45,0.00,CLR,,0.00,WeatherDisplay:10.37,2013-01-20 00:05:00,
2013-01-19 19:10:00,47.0,27.3,30.09,SW,228,5.8,5.8,46,0.00,CLR,,0.00,WeatherDisplay:10.37,2013-01-20 00:10:00,
2013-01-19 19:15:00,47.0,27.3,30.08,SW,217,8.1,8.1,46,0.00,CLR,,0.00,WeatherDisplay:10.37,2013-01-20 00:15:00,
2013-01-19 19:20:00,46.8,27.1,30.08,SSW,212,10.4,10.4,46,0.00,CLR,,0.00,WeatherDisplay:10.37,2013-01-20 00:20:00,
2013-01-19 19:25:00,46.8,26.6,30.08,SW,222,8.0,8.0,45,0.00,CLR,,0.00,WeatherDisplay:10.37,2013-01-20 00:25:00,
2013-01-19 19:30:00,46.8,26.6,30.07,SW,228,9.2,9.2,45,0.00,CLR,,0.00,WeatherDisplay:10.37,2013-01-20 00:30:00,
2013-01-19 19:35:00,46.9,26.6,30.07,SW,229,7.0,7.0,45,0.00,CLR,,0.00,WeatherDisplay:10.37,2013-01-20 00:35:00,
2013-01-19 19:40:00,46.9,26.6,30.08,SW,230,9.2,9.2,45,0.00,CLR,,0.00,WeatherDisplay:10.37,2013-01-20 00:40:00,
2013-01-19 19:46:00,46.9,26.6,30.08,SW,232,9.2,9.2,45,0.00,CLR,,0.00,WeatherDisplay:10.37,2013-01-20 00:46:00,
2013-01-19 19:51:00,46.7,26.5,30.08,SW,233,6.9,6.9,45,0.00,CLR,,0.00,WeatherDisplay:10.37,2013-01-20 00:51:00,
2013-01-19 19:56:00,46.6,26.4,30.08,WSW,247,11.5,11.5,45,0.00,CLR,,0.00,WeatherDisplay:10.37,2013-01-20 00:56:00,
2013-01-19 20:01:00,46.5,26.8,30.08,SW,232,8.0,8.0,46,0.00,CLR,,0.00,WeatherDisplay:10.37,2013-01-20 01:01:00,
2013-01-19 20:07:00,46.5,26.8,30.08,SW,224,10.0,10.0,46,0.00,CLR,,0.00,WeatherDisplay:10.37,2013-01-20 01:07:00,
2013-01-19 20:12:00,46.7,27.0,30.08,WSW,241,8.1,8.1,46,0.00,CLR,,0.00,WeatherDisplay:10.37,2013-01-20 01:12:00,
2013-01-19 20:18:00,46.8,27.1,30.08,WSW,242,15.0,15.0,46,0.00,CLR,,0.00,WeatherDisplay:10.37,2013-01-20 01:18:00,
2013-01-19 20:23:00,46.9,27.2,30.08,SW,224,10.4,10.4,46,0.00,CLR,,0.00,WeatherDisplay:10.37,2013-01-20 01:23:00,
2013-01-19 20:28:00,47.0,27.3,30.08,SW,221,11.5,11.5,46,0.00,CLR,,0.00,WeatherDisplay:10.37,2013-01-20 01:28:00,
2013-01-19 20:33:00,47.1,27.4,30.08,SW,226,13.0,13.0,46,0.00,CLR,,0.00,WeatherDisplay:10.37,2013-01-20 01:33:00,
2013-01-19 20:38:00,47.1,27.9,30.08,SW,227,15.0,15.0,47,0.00,CLR,,0.00,WeatherDisplay:10.37,2013-01-20 01:38:00,
2013-01-19 20:43:00,47.0,27.8,30.08,WSW,238,14.0,14.0,47,0.00,CLR,,0.00,WeatherDisplay:10.37,2013-01-20 01:43:00,
2013-01-19 20:48:00,47.0,27.8,30.08,SW,231,19.6,19.6,47,0.00,CLR,,0.00,WeatherDisplay:10.37,2013-01-20 01:48:00,
2013-01-19 20:54:00,46.8,28.1,30.08,SW,228,11.5,11.5,48,0.00,CLR,,0.00,WeatherDisplay:10.37,2013-01-20 01:54:00,
2013-01-19 21:00:00,46.8,28.1,30.08,WSW,240,13.8,13.8,48,0.00,CLR,,0.00,WeatherDisplay:10.37,2013-01-20 02:00:00,
2013-01-19 21:05:00,46.8,28.1,30.07,WSW,240,13.8,13.8,48,0.00,CLR,,0.00,WeatherDisplay:10.37,2013-01-20 02:05:00,
2013-01-19 21:10:00,46.6,28.4,30.07,WSW,238,10.4,10.4,49,0.00,CLR,,0.00,WeatherDisplay:10.37,2013-01-20 02:10:00,
2013-01-19 21:15:00,46.5,28.3,30.07,WSW,247,11.5,11.5,49,0.00,CLR,,0.00,WeatherDisplay:10.37,2013-01-20 02:15:00,
2013-01-19 21:20:00,46.5,28.3,30.07,WSW,245,12.0,12.0,49,0.00,CLR,,0.00,WeatherDisplay:10.37,2013-01-20 02:20:00,
2013-01-19 21:25:00,46.5,28.3,30.08,SW,219,16.1,16.1,49,0.00,CLR,,0.00,WeatherDisplay:10.37,2013-01-20 02:25:00,
2013-01-19 21:30:00,46.5,28.8,30.07,SW,224,12.7,12.7,50,0.00,CLR,,0.00,WeatherDisplay:10.37,2013-01-20 02:30:00,
2013-01-19 21:35:00,46.3,28.7,30.08,WSW,253,9.2,9.2,50,0.00,CLR,,0.00,WeatherDisplay:10.37,2013-01-20 02:35:00,
2013-01-19 21:40:00,46.3,29.1,30.08,SW,230,11.0,11.0,51,0.00,CLR,,0.00,WeatherDisplay:10.37,2013-01-20 02:40:00,
2013-01-19 21:45:00,46.3,29.1,30.08,WSW,255,17.0,17.0,51,0.00,CLR,,0.00,WeatherDisplay:10.37,2013-01-20 02:45:00,
2013-01-19 21:50:00,46.3,29.1,30.08,SW,228,15.0,15.0,51,0.00,CLR,,0.00,WeatherDisplay:10.37,2013-01-20 02:50:00,
2013-01-19 21:55:00,46.3,29.1,30.08,SW,229,15.0,15.0,51,0.00,CLR,,0.00,WeatherDisplay:10.37,2013-01-20 02:55:00,
2013-01-19 22:00:00,46.2,29.1,30.08,West,268,14.0,14.0,51,0.00,CLR,,0.00,WeatherDisplay:10.37,2013-01-20 03:00:00,
2013-01-19 22:05:00,46.3,29.1,30.08,WSW,251,11.5,11.5,51,0.00,CLR,,0.00,WeatherDisplay:10.37,2013-01-20 03:05:00,
2013-01-19 22:10:00,46.1,29.4,30.08,West,262,9.2,9.2,52,0.00,CLR,,0.00,WeatherDisplay:10.37,2013-01-20 03:10:00,
2013-01-19 22:15:00,46.0,29.3,30.08,West,260,12.0,12.0,52,0.00,CLR,,0.00,WeatherDisplay:10.37,2013-01-20 03:15:00,
2013-01-19 22:20:00,46.1,29.4,30.08,SW,236,13.0,13.0,52,0.00,CLR,,0.00,WeatherDisplay:10.37,2013-01-20 03:20:00,
2013-01-19 22:25:00,46.1,29.4,30.08,SW,234,11.5,11.5,52,0.00,CLR,,0.00,WeatherDisplay:10.37,2013-01-20 03:25:00,
2013-01-19 22:30:00,46.1,29.9,30.08,WSW,241,12.0,12.0,53,0.00,CLR,,0.00,WeatherDisplay:10.37,2013-01-20 03:30:00,
2013-01-19 22:36:00,46.0,29.8,30.08,WSW,253,11.5,11.5,53,0.00,CLR,,0.00,WeatherDisplay:10.37,2013-01-20 03:36:00,
2013-01-19 22:41:00,45.9,29.7,30.08,WSW,242,9.0,9.0,53,0.00,CLR,,0.00,WeatherDisplay:10.37,2013-01-20 03:41:00,
2013-01-19 22:47:00,45.9,29.7,30.08,WSW,238,13.8,13.8,53,0.00,CLR,,0.00,WeatherDisplay:10.37,2013-01-20 03:47:00,
2013-01-19 22:52:00,45.8,29.6,30.08,SW,234,10.4,10.4,53,0.00,CLR,,0.00,WeatherDisplay:10.37,2013-01-20 03:52:00,
2013-01-19 22:57:00,45.8,30.1,30.08,WSW,245,11.5,11.5,54,0.00,CLR,,0.00,WeatherDisplay:10.37,2013-01-20 03:57:00,
2013-01-19 23:02:00,45.7,30.0,30.08,WSW,244,14.0,14.0,54,0.00,CLR,,0.00,WeatherDisplay:10.37,2013-01-20 04:02:00,
2013-01-19 23:08:00,45.7,30.0,30.08,West,264,11.5,11.5,54,0.00,CLR,,0.00,WeatherDisplay:10.37,2013-01-20 04:08:00,
2013-01-19 23:13:00,45.6,29.9,30.08,SW,236,10.4,10.4,54,0.00,CLR,,0.00,WeatherDisplay:10.37,2013-01-20 04:13:00,
2013-01-19 23:18:00,45.5,29.8,30.08,WSW,244,10.4,10.4,54,0.00,CLR,,0.00,WeatherDisplay:10.37,2013-01-20 04:18:00,
2013-01-19 23:23:00,45.6,29.9,30.08,SW,235,10.0,10.0,54,0.00,CLR,,0.00,WeatherDisplay:10.37,2013-01-20 04:23:00,
2013-01-19 23:28:00,45.5,29.8,30.08,WSW,239,7.0,7.0,54,0.00,CLR,,0.00,WeatherDisplay:10.37,2013-01-20 04:28:00,
2013-01-19 23:33:00,45.5,29.8,30.08,West,270,18.4,18.4,54,0.00,CLR,,0.00,WeatherDisplay:10.37,2013-01-20 04:33:00,
2013-01-19 23:39:00,45.5,29.8,30.07,West,264,9.2,9.2,54,0.00,CLR,,0.00,WeatherDisplay:10.37,2013-01-20 04:39:00,
2013-01-19 23:44:00,45.4,29.7,30.07,WSW,249,11.5,11.5,54,0.00,CLR,,0.00,WeatherDisplay:10.37,2013-01-20 04:44:00,
2013-01-19 23:49:00,45.4,29.7,30.07,WSW,247,17.3,17.3,54,0.00,CLR,,0.00,WeatherDisplay:10.37,2013-01-20 04:49:00,
2013-01-19 23:54:00,45.5,29.8,30.07,SW,234,13.0,13.0,54,0.00,CLR,,0.00,WeatherDisplay:10.37,2013-01-20 04:54:00,
2013-01-19 23:59:00,45.7,30.0,30.07,SW,224,16.0,16.0,54,0.00,CLR,,0.00,WeatherDisplay:10.37,2013-01-20 04:59:00,